Hovedside
METAR-TAF:

METAR-TAF

Lufthavner :

Acapulco, Mexico

General Juan N. Álvarez internasjonale lufthavn

breddegrad: 16-46N, lengdegrad: 099-45W, høyde over havet: 5 m

Gjeldene værobservasjon

Denne rapporten ble laget for 24 minutter siden, klokken 01:41 UTC
Vind 5 kt fra Vest
Temperatur 27°C
Luftfuktighet 84%
Trykk 1010 hPa
Sikt: 11.3 km
Skyfri himmel

METAR: MMAA 260141Z 26005KT 7SM SKC 27/24 A2983 RMK HZY CI

Tid: 21:05 (02:05 UTC)

Varsel

Denne rapporten ble laget for 2 timer og 48 minutter siden, klokken 23:17 UTC
Varsel gyldig fra 26. klokken 00 UTC til 27. klokken 06 UTC
Vind 8 kt fra Vest
Sikt: 10 km
Skyfri himmel
Blir
fra 26. klokken 02 UTC til 26. klokken 03 UTC
Vind kt fra Nord
Fra 26. klokken 1800 UTC
Vind 12 kt fra Vest-sørvest
Sikt: 10 km
Skyfri himmel
Blir
fra 27. klokken 01 UTC til 27. klokken 02 UTC
Vind kt fra Nord

TAF: MMAA 252317Z 2600/2706 26008KT P6SM SKC TX31/2619Z TN24/2610Z BECMG 2602/2603 00000KT FM261800 24012KT P6SM SKC BECMG 2701/2702 00000KT

Værobservasjoner og værvarsel for over 4000 flyplasser (METAR- og TAF-rapporter).

Tilgjengelige stasjoner er representert av de røde og gule prikkene på kartet.

Hold musepekeren over prikken for å se navnet på stasjonen.

Klikk så for å se værobservasjoner og -varsler.

For å forandre kartet kan du klikke på den grønne knappen med svart kryss for å zoome inn, på den grønne knappen med strek for å zoome ut, eller på de grønne pilene for å se tilstøtende kart.


METAR-TAF: